Terminal Aerodrome Forecast
Issued by NWS Portland, OR

Home | Current Version | Previous Version | Text Only | Print | Product List | Glossary On
Versions: 1 2 3 4 5 6 7 8 9 10 11 12 13 14 15 16 17 18 19 20 21 22 23 24 25 26 27 28 29 30 31 32 33 34
000
FTUS46 KPQR 240520
TAFHIO
TAF
KHIO 240520Z 2406/2506 VRB03KT P6SM OVC021
     FM241200 VRB02KT P6SM BKN015 OVC018
     FM241900 30004KT P6SM SCT015 OVC025
     FM242200 32007KT P6SM SCT025 BKN045=

USA.gov is the U.S. government's official web portal to all federal, state and local government web resources and services.